createdAt,value
2023-04-09T00:04:32.043Z,53.4
2023-04-09T00:06:29.649Z,49.8
2023-04-09T00:12:22.371Z,57.9
2023-04-09T00:14:19.970Z,59.8
2023-04-09T00:16:17.609Z,54.2
2023-04-09T00:20:20.735Z,56.3
2023-04-09T00:22:18.283Z,51.6
2023-04-09T00:23:21.023Z,53.4
2023-04-09T00:27:16.219Z,58.8
2023-04-09T00:29:13.820Z,59.2
2023-04-09T00:35:14.521Z,55.6
2023-04-09T00:37:12.100Z,58
2023-04-09T00:39:09.687Z,59.5
2023-04-09T00:41:07.284Z,50.2
2023-04-09T00:43:04.855Z,49.7
2023-04-09T00:45:10.361Z,56.6
2023-04-09T00:47:07.965Z,53.3
2023-04-09T00:49:05.585Z,52
2023-04-09T00:51:03.133Z,61.4
2023-04-09T00:53:00.772Z,50.6
2023-04-09T00:59:01.480Z,45.6
2023-04-09T01:00:59.131Z,48.3
2023-04-09T01:02:56.757Z,46.7
2023-04-09T01:04:54.292Z,52.1
2023-04-09T01:06:51.910Z,55.9
2023-04-09T01:08:49.606Z,49.3
2023-04-09T01:12:52.580Z,52.6
2023-04-09T01:14:50.175Z,42.6
2023-04-09T01:16:47.832Z,50.4
2023-04-09T01:19:10.687Z,43.3
2023-04-09T01:21:08.243Z,50.5
2023-04-09T01:25:11.411Z,56.9
2023-04-09T01:27:08.995Z,58.4
2023-04-09T01:29:06.568Z,65.5
2023-04-09T01:42:57.693Z,53.7
2023-04-09T01:46:52.888Z,41.2
2023-04-09T01:50:48.105Z,49.7
2023-04-09T01:52:53.609Z,51.2
2023-04-09T01:54:51.223Z,51.8
2023-04-09T01:56:48.817Z,52.9
2023-04-09T02:00:44.019Z,53.2
2023-04-09T02:02:41.686Z,50.1
2023-04-09T02:04:40.748Z,48.4
2023-04-09T02:06:46.215Z,62.3
2023-04-09T02:08:43.823Z,46.9
2023-04-09T02:10:41.417Z,47.9
2023-04-09T02:11:44.155Z,59
2023-04-09T02:15:40.421Z,55.6
2023-04-09T02:17:36.957Z,45.9
2023-04-09T02:19:42.473Z,47
2023-04-09T02:21:40.064Z,55.3
2023-04-09T02:25:35.280Z,51.2
2023-04-09T02:27:32.889Z,50.9
2023-04-09T02:29:30.503Z,47.3
2023-04-09T02:31:28.237Z,54.6
2023-04-09T02:35:31.303Z,52.2
2023-04-09T02:37:28.815Z,40.8
2023-04-09T02:45:19.220Z,45.2
2023-04-09T02:47:24.718Z,48
2023-04-09T02:49:22.314Z,47.3
2023-04-09T02:51:19.924Z,39.6
2023-04-09T02:55:15.138Z,58.7
2023-04-09T02:59:10.324Z,55.3
2023-04-09T03:03:13.660Z,48.8
2023-04-09T03:05:11.039Z,51.9
2023-04-09T03:06:13.790Z,53
2023-04-09T03:10:08.985Z,40.8
2023-04-09T03:12:06.576Z,38.8
2023-04-09T03:14:12.108Z,47.1
2023-04-09T03:20:04.900Z,47.1
2023-04-09T03:25:57.678Z,54.5
2023-04-09T03:28:03.142Z,44.4
2023-04-09T03:30:00.775Z,49.2
2023-04-09T03:31:58.518Z,41.2
2023-04-09T03:47:47.205Z,41.2
2023-04-09T03:49:44.706Z,42.5
2023-04-09T03:51:42.292Z,34.7
2023-04-09T03:53:39.904Z,47.3
2023-04-09T03:55:45.416Z,38.8
2023-04-09T03:57:43.183Z,43.4
2023-04-09T03:59:40.634Z,34.9
2023-04-09T04:00:43.387Z,41.8
2023-04-09T04:06:36.144Z,40.6
2023-04-09T04:14:34.516Z,32.9
2023-04-09T04:16:32.079Z,36.1
2023-04-09T04:18:29.679Z,34.9
2023-04-09T04:22:32.779Z,42.3
2023-04-09T04:30:23.195Z,32.5
2023-04-09T04:32:20.764Z,36.9
2023-04-09T04:34:18.366Z,40
2023-04-09T04:36:23.871Z,32.5
2023-04-09T04:38:21.457Z,33.4
2023-04-09T04:44:14.221Z,32.7
2023-04-09T04:48:09.450Z,33.5
2023-04-09T04:50:14.914Z,41.8
2023-04-09T04:52:12.550Z,41.1
2023-04-09T04:54:10.151Z,47.4
2023-04-09T04:56:32.947Z,39
2023-04-09T05:00:28.173Z,36.9
2023-04-09T05:06:28.825Z,45.6
2023-04-09T05:08:26.441Z,51
2023-04-09T05:10:24.071Z,43.8
2023-04-09T05:12:21.660Z,37.3
2023-04-09T05:14:19.241Z,45.5
2023-04-09T05:18:22.382Z,50.1
2023-04-09T05:24:15.157Z,45.9
2023-04-09T05:34:11.037Z,43.6
2023-04-09T05:36:08.658Z,38.7
2023-04-09T05:38:06.222Z,49
2023-04-09T05:40:03.826Z,43.1
2023-04-09T05:42:01.505Z,34.2
2023-04-09T05:44:06.962Z,49.2
2023-04-09T05:46:04.584Z,50.9
2023-04-09T05:48:02.175Z,41.1
2023-04-09T05:49:04.889Z,43.8
2023-04-09T05:53:00.141Z,38.4
2023-04-09T05:54:57.775Z,39.5
2023-04-09T05:57:03.382Z,50.4
2023-04-09T06:02:56.096Z,46.5
2023-04-09T06:06:51.207Z,40.2
2023-04-09T06:08:48.815Z,34.7
2023-04-09T06:12:51.919Z,46.7
2023-04-09T06:14:49.536Z,50.8
2023-04-09T06:16:47.131Z,47.1
2023-04-09T06:22:39.917Z,39.1
2023-04-09T06:24:45.415Z,45.5
2023-04-09T06:26:43.021Z,40.5
2023-04-09T06:28:40.603Z,43.7
2023-04-09T06:34:33.385Z,43.2
2023-04-09T06:36:31.037Z,42.9
2023-04-09T06:40:34.097Z,35
2023-04-09T06:42:31.690Z,50.9
2023-04-09T06:43:34.408Z,44.2
2023-04-09T06:47:29.668Z,42.6
2023-04-09T06:49:27.227Z,43
2023-04-09T06:57:25.524Z,36.5
2023-04-09T06:59:23.109Z,34
2023-04-09T07:03:18.491Z,49.3
2023-04-09T07:05:23.780Z,36.5
2023-04-09T07:13:14.156Z,36.6
2023-04-09T07:15:11.772Z,33.2
2023-04-09T07:17:09.340Z,40
2023-04-09T07:19:14.851Z,44.4
2023-04-09T07:21:12.446Z,41.3
2023-04-09T07:23:10.044Z,44.5
2023-04-09T07:25:07.637Z,44.2
2023-04-09T07:27:05.259Z,50
2023-04-09T07:29:02.867Z,42.9
2023-04-09T07:31:00.472Z,46.8
2023-04-09T07:33:05.972Z,39.1
2023-04-09T07:35:03.559Z,43
2023-04-09T07:37:01.156Z,33.4
2023-04-09T07:38:03.893Z,44.4
2023-04-09T07:40:01.519Z,50.6
2023-04-09T07:41:59.103Z,36.4
2023-04-09T07:43:56.734Z,43.9
2023-04-09T07:46:03.709Z,53.1
2023-04-09T07:48:01.316Z,47
2023-04-09T07:49:58.861Z,45.2
2023-04-09T08:07:45.146Z,52.5
2023-04-09T08:09:42.756Z,40.9
2023-04-09T08:11:40.362Z,48.7
2023-04-09T08:13:45.855Z,53.7
2023-04-09T08:15:43.445Z,48.6
2023-04-09T08:17:41.088Z,43.6
2023-04-09T08:19:41.139Z,38.3
2023-04-09T08:21:36.244Z,43.8
2023-04-09T08:23:33.862Z,42.9
2023-04-09T08:25:31.458Z,48.1
2023-04-09T08:33:52.943Z,34.3
2023-04-09T08:37:48.195Z,29.9
2023-04-09T08:41:51.294Z,40
2023-04-09T08:45:46.519Z,35.1
2023-04-09T08:47:44.169Z,42.9
2023-04-09T08:49:41.712Z,34.8
2023-04-09T08:51:39.294Z,37.1
2023-04-09T08:53:44.786Z,34.5
2023-04-09T08:57:39.972Z,37.2
2023-04-09T08:59:37.574Z,40.7
2023-04-09T09:01:35.219Z,41.5
2023-04-09T09:05:30.363Z,38.4
2023-04-09T09:07:35.891Z,33.8
2023-04-09T09:11:31.057Z,27
2023-04-09T09:15:26.212Z,28.1
2023-04-09T09:19:21.450Z,34.8
2023-04-09T09:23:24.536Z,28.3
2023-04-09T09:25:22.140Z,37.3
2023-04-09T09:26:24.932Z,34.7
2023-04-09T09:32:17.735Z,37.3
2023-04-09T09:34:23.199Z,35.2
2023-04-09T09:42:13.609Z,34.4
2023-04-09T09:44:11.216Z,31.1
2023-04-09T09:46:08.880Z,25.4
2023-04-09T09:48:14.318Z,26.7
2023-04-09T09:50:11.915Z,30.7
2023-04-09T09:54:07.101Z,22.2
2023-04-09T09:56:04.714Z,29.9
2023-04-09T09:58:02.310Z,32
2023-04-09T09:59:59.895Z,29.6
2023-04-09T10:02:05.712Z,29.2
2023-04-09T10:04:03.048Z,22.7
2023-04-09T10:06:00.604Z,25.2
2023-04-09T10:07:58.217Z,31.9
2023-04-09T10:09:55.814Z,26.2
2023-04-09T10:15:56.628Z,32.2
2023-04-09T10:22:52.139Z,24.1
2023-04-09T10:26:47.352Z,32.3
2023-04-09T10:28:52.994Z,26.6
2023-04-09T10:34:45.715Z,23.3
2023-04-09T10:36:43.304Z,24.8
2023-04-09T10:46:39.268Z,24.3
2023-04-09T10:50:34.422Z,25.7
2023-04-09T10:52:32.027Z,18.5
2023-04-09T10:54:29.615Z,23.9
2023-04-09T10:58:32.723Z,23.7
2023-04-09T11:00:30.323Z,21.4
2023-04-09T11:02:28.025Z,28.1
2023-04-09T11:04:25.495Z,25
2023-04-09T11:06:23.103Z,25.4
2023-04-09T11:15:24.202Z,25.2
2023-04-09T11:17:21.739Z,16.8
2023-04-09T11:19:19.285Z,25.3
2023-04-09T11:21:18.110Z,28.3
2023-04-09T11:25:19.987Z,23.7
2023-04-09T11:27:17.570Z,22.3
2023-04-09T11:31:12.728Z,20.1
2023-04-09T11:35:07.774Z,18.1
2023-04-09T11:37:13.278Z,16.2
2023-04-09T11:39:10.863Z,15.1
2023-04-09T11:41:08.375Z,22
2023-04-09T11:43:05.936Z,18.3
2023-04-09T11:45:03.479Z,18.5
2023-04-09T11:47:01.043Z,19.4
2023-04-09T11:48:58.530Z,15.4
2023-04-09T11:51:04.004Z,11
2023-04-09T11:53:01.560Z,15.6
2023-04-09T11:56:56.577Z,9.4
2023-04-09T11:58:54.249Z,18.6
2023-04-09T12:02:49.265Z,14.9
2023-04-09T12:04:54.755Z,13
2023-04-09T12:06:52.044Z,11.9
2023-04-09T12:11:10.128Z,13.1
2023-04-09T12:13:07.574Z,16.2
2023-04-09T12:15:05.049Z,12.9
2023-04-09T12:17:10.483Z,15.2
2023-04-09T12:19:07.930Z,15.1
2023-04-09T12:21:05.428Z,16.1
2023-04-09T12:23:02.885Z,13.2
2023-04-09T12:28:55.226Z,11.8
2023-04-09T12:34:55.528Z,15.4
2023-04-09T12:36:52.982Z,14.8
2023-04-09T12:44:50.688Z,14.7
2023-04-09T12:46:48.107Z,27
2023-04-09T12:50:42.939Z,11.2
2023-04-09T12:56:35.136Z,12.3
2023-04-09T12:58:40.547Z,22.2
2023-04-09T13:00:37.930Z,13.3
2023-04-09T13:02:35.499Z,13.6
2023-04-09T13:03:38.215Z,15.6
2023-04-09T13:05:35.419Z,13.1
2023-04-09T13:13:32.887Z,15.4
2023-04-09T13:15:30.273Z,11.7
2023-04-09T13:17:30.273Z,13.7
2023-04-09T13:19:25.021Z,15.1
2023-04-09T13:27:23.933Z,16
2023-04-09T13:29:21.277Z,13.8
2023-04-09T13:31:18.672Z,21.1
2023-04-09T13:39:15.985Z,11.4
2023-04-09T13:41:13.298Z,17.2
2023-04-09T13:47:05.277Z,13.4
2023-04-09T13:49:02.582Z,15.4
2023-04-09T13:50:59.905Z,10.9
2023-04-09T13:53:05.259Z,41.3
2023-04-09T13:55:02.518Z,14.3
2023-04-09T13:58:02.476Z,12.7
2023-04-09T13:59:59.765Z,15.5
2023-04-09T14:01:57.189Z,12
2023-04-09T14:03:56.063Z,11.7
2023-04-09T14:05:59.669Z,13
2023-04-09T14:07:56.952Z,18
2023-04-09T14:09:54.226Z,13
2023-04-09T14:13:48.831Z,11.9
2023-04-09T14:15:46.191Z,19.6
2023-04-09T14:17:43.418Z,14.5
2023-04-09T14:19:48.695Z,13.4
2023-04-09T14:21:45.969Z,14.2
2023-04-09T14:23:43.375Z,13.1
2023-04-09T14:29:35.188Z,13.5
2023-04-09T14:31:32.576Z,17.7
2023-04-09T14:33:37.789Z,15
2023-04-09T14:35:35.176Z,11.4
2023-04-09T14:37:32.408Z,16.1
2023-04-09T14:39:29.725Z,13.3
2023-04-09T14:47:26.990Z,15.9
2023-04-09T14:49:24.238Z,12.9
2023-04-09T14:52:24.204Z,12.8
2023-04-09T14:54:21.505Z,13.9
2023-04-09T14:56:18.813Z,15
2023-04-09T15:00:21.487Z,17.9
2023-04-09T15:06:13.418Z,12.6
2023-04-09T15:08:10.745Z,9.8
2023-04-09T15:10:08.080Z,12.1
2023-04-09T15:16:08.227Z,7.7
2023-04-09T15:18:05.923Z,16.9
2023-04-09T15:20:03.049Z,14
2023-04-09T15:22:00.501Z,10
2023-04-09T15:23:57.933Z,11.5
2023-04-09T15:25:55.420Z,8.6
2023-04-09T15:28:00.816Z,13.5
2023-04-09T15:29:58.320Z,14.1
2023-04-09T15:31:55.875Z,13.6
2023-04-09T15:33:53.352Z,11.2
2023-04-09T15:35:50.876Z,10.8
2023-04-09T15:39:45.882Z,19
2023-04-09T15:41:51.341Z,14.8
2023-04-09T15:43:48.888Z,20.2
2023-04-09T15:45:46.448Z,10.5
2023-04-09T15:48:13.346Z,13.7
2023-04-09T15:50:10.771Z,12.9
2023-04-09T15:52:08.352Z,15.7
2023-04-09T15:54:13.813Z,14.6
2023-04-09T15:56:12.141Z,15
2023-04-09T16:17:52.555Z,16
2023-04-09T16:19:50.107Z,12.8
2023-04-09T16:21:55.592Z,14.5
2023-04-09T16:27:48.349Z,14.8
2023-04-09T16:29:45.957Z,10.2
2023-04-09T16:31:43.774Z,8.9
2023-04-09T16:33:41.107Z,12.9
2023-04-09T16:35:46.698Z,21.2
2023-04-09T16:37:44.194Z,17.5
2023-04-09T16:39:41.810Z,11
2023-04-09T16:40:44.570Z,11.6
2023-04-09T16:42:42.190Z,10.3
2023-04-09T16:44:39.740Z,15.8
2023-04-09T16:46:37.348Z,11.9
2023-04-09T16:48:42.833Z,10.5
2023-04-09T16:50:40.467Z,20.2
2023-04-09T16:54:35.630Z,11.2
2023-04-09T16:56:33.217Z,12
2023-04-09T16:58:30.816Z,10.9
2023-04-09T17:10:24.328Z,15.5
2023-04-09T17:12:21.871Z,16.2
2023-04-09T17:16:25.052Z,12.1
2023-04-09T17:24:15.403Z,12.4
2023-04-09T17:32:13.771Z,10.3
2023-04-09T17:34:11.361Z,14.3
2023-04-09T17:35:14.139Z,11.6
2023-04-09T17:39:09.339Z,21.2
2023-04-09T17:49:05.323Z,11.3
2023-04-09T17:51:02.940Z,13.9
2023-04-09T17:53:00.540Z,10
2023-04-09T17:54:58.151Z,14.7
2023-04-09T17:57:03.657Z,18
2023-04-09T18:04:54.158Z,19.9
2023-04-09T18:06:51.698Z,19.3
2023-04-09T18:08:49.277Z,19.5
2023-04-09T18:11:01.641Z,17
2023-04-09T18:16:47.655Z,19.6
2023-04-09T18:26:43.599Z,168.2
2023-04-09T18:28:41.204Z,22.7
2023-04-09T18:29:43.993Z,19.3
2023-04-09T18:31:41.675Z,23
2023-04-09T18:35:36.843Z,26.3
2023-04-09T18:37:42.361Z,18.3
2023-04-09T18:39:40.031Z,31.4
2023-04-09T18:41:37.593Z,18.9
2023-04-09T18:43:35.202Z,18.9
2023-04-09T18:51:33.534Z,16.4
2023-04-09T18:53:31.132Z,20
2023-04-09T19:03:19.463Z,17.1
2023-04-09T19:09:21.560Z,27
2023-04-09T19:15:14.436Z,43.1
2023-04-09T19:17:12.034Z,30.9
2023-04-09T19:19:17.569Z,66.3
2023-04-09T19:23:12.788Z,24.1
2023-04-09T19:25:39.704Z,22.5
2023-04-09T19:27:37.332Z,26.8
2023-04-09T19:31:40.576Z,22.5
2023-04-09T19:33:38.097Z,27.9
2023-04-09T19:35:35.775Z,29.7
2023-04-09T19:37:33.382Z,17.6
2023-04-09T19:41:28.613Z,31.8
2023-04-09T19:49:26.985Z,26.7
2023-04-09T19:53:22.244Z,27.6
2023-04-09T20:01:20.646Z,40.8
2023-04-09T20:15:11.856Z,23.3
2023-04-09T20:17:09.468Z,31.7
2023-04-09T20:35:58.818Z,47
2023-04-09T20:37:56.338Z,45.9
2023-04-09T20:40:01.898Z,46.3
2023-04-09T20:41:59.527Z,54.3
2023-04-09T20:43:57.130Z,48.7
2023-04-09T20:45:54.747Z,42.3
2023-04-09T20:47:52.373Z,55.8
2023-04-09T20:49:49.964Z,45.4
2023-04-09T20:51:47.572Z,46.3
2023-04-09T20:53:53.103Z,60.1
2023-04-09T20:57:48.313Z,32.8
2023-04-09T20:59:45.939Z,42.4
2023-04-09T21:05:38.807Z,35.4
2023-04-09T21:09:41.994Z,37
2023-04-09T21:11:39.567Z,51.4
2023-04-09T21:12:42.333Z,32.1
2023-04-09T21:14:39.946Z,45.7
2023-04-09T21:18:35.242Z,45.5
2023-04-09T21:20:40.755Z,40.4
2023-04-09T21:24:36.013Z,43.7
2023-04-09T21:26:48.701Z,39
2023-04-09T21:28:31.233Z,36.6
2023-04-09T21:36:29.694Z,38.8
2023-04-09T21:38:27.294Z,48.1
2023-04-09T21:40:24.931Z,42.8
2023-04-09T21:42:22.535Z,31.2
2023-04-09T21:44:20.176Z,35.6
2023-04-09T21:52:18.611Z,32.2
2023-04-09T21:54:16.208Z,29.8
2023-04-09T21:56:13.838Z,35.6
2023-04-09T22:00:09.061Z,30.2
2023-04-09T22:02:14.673Z,33.2
2023-04-09T22:04:12.345Z,43.1
2023-04-09T22:06:09.895Z,43.3
2023-04-09T22:07:12.639Z,41.1
2023-04-09T22:13:05.517Z,37.8
2023-04-09T22:15:11.113Z,38.8
2023-04-09T22:24:59.186Z,37.5
2023-04-09T22:26:56.818Z,43.9
2023-04-09T22:29:03.843Z,41.9
2023-04-09T22:32:57.600Z,36
2023-04-09T22:34:55.158Z,43.7
2023-04-09T22:36:52.785Z,40.4
2023-04-09T22:38:50.419Z,36.5
2023-04-09T22:42:53.552Z,37.7
2023-04-09T22:44:51.202Z,44.7
2023-04-09T22:46:48.810Z,41.2
2023-04-09T22:48:46.385Z,38.3
2023-04-09T22:52:41.620Z,29.1
2023-04-09T22:56:44.728Z,42.9
2023-04-09T22:58:42.374Z,45.1
2023-04-09T23:03:07.129Z,44.9
2023-04-09T23:05:04.717Z,61
2023-04-09T23:09:07.702Z,44.5
2023-04-09T23:13:02.978Z,52.3
2023-04-09T23:15:00.536Z,42.4
2023-04-09T23:16:58.139Z,47.7
2023-04-09T23:18:55.934Z,48
2023-04-09T23:20:53.425Z,54.5
2023-04-09T23:22:58.943Z,41.3
2023-04-09T23:24:56.617Z,48.9
2023-04-09T23:26:54.197Z,39.9
2023-04-09T23:28:52.054Z,47.6
2023-04-09T23:30:49.397Z,55.7
2023-04-09T23:32:47.077Z,39.9
2023-04-09T23:34:44.661Z,48.4
2023-04-09T23:36:50.191Z,54.7
2023-04-09T23:38:47.816Z,50.6
2023-04-09T23:40:45.431Z,45.7
2023-04-09T23:44:40.709Z,50.5
2023-04-09T23:46:38.311Z,49.2
2023-04-09T23:48:35.934Z,46.6
2023-04-09T23:50:41.512Z,45.8
2023-04-09T23:52:39.104Z,42.9
2023-04-09T23:54:36.714Z,46.6
2023-04-09T23:55:39.461Z,50.9
2023-04-09T23:57:37.085Z,41.2
2023-04-09T23:59:34.687Z,47.9
